Time;durP1;ratioP1;P1;durP2;ratioP2;P2;SDS_P1;SDS_P2;PMS_P1;PMS_P2;Temp;Humidity;BMP_temperature;BMP_pressure;BME280_temperature;BME280_humidity;BME280_pressure;Samples;Min_cycle;Max_cycle;Signal;HPM_P1;HPM_P2
2023/09/16 00:00:33;;;;;;;6.50;1.60;;;;;;;12.13;75.71;100752.71;109532;1254;57993;-65
2023/09/16 00:03:35;;;;;;;5.90;1.70;;;;;;;12.07;75.95;100746.92;109358;1253;59070;-65
2023/09/16 00:06:21;;;;;;;5.80;1.70;;;;;;;12.02;76.17;100744.77;109308;1254;72950;-67
2023/09/16 00:09:08;;;;;;;6.50;1.90;;;;;;;11.96;76.32;100746.08;109510;1254;67611;-66
2023/09/16 00:11:54;;;;;;;5.90;1.90;;;;;;;11.92;76.63;100743.88;109307;1253;72805;-64
2023/09/16 00:14:41;;;;;;;7.00;2.00;;;;;;;11.88;76.79;100743.09;109499;1254;59027;-65
2023/09/16 00:17:27;;;;;;;5.50;1.70;;;;;;;11.83;76.79;100740.39;109235;1254;60336;-65
2023/09/16 00:20:16;;;;;;;6.40;1.90;;;;;;;11.81;77.12;100743.07;109323;1254;74119;-66
2023/09/16 00:23:04;;;;;;;6.40;1.80;;;;;;;11.78;77.25;100743.96;109328;1254;68823;-66
2023/09/16 00:25:50;;;;;;;9.40;1.90;;;;;;;11.73;77.59;100740.23;109504;1255;71501;-65
2023/09/16 00:28:36;;;;;;;7.70;1.80;;;;;;;11.70;77.41;100739.93;109498;1254;57653;-66
2023/09/16 00:31:22;;;;;;;7.00;1.90;;;;;;;11.66;77.56;100737.52;109491;1256;58743;-66
2023/09/16 00:34:09;;;;;;;6.50;2.10;;;;;;;11.64;77.57;100736.66;109313;1254;71106;-65
2023/09/16 00:36:55;;;;;;;7.70;1.90;;;;;;;11.63;77.46;100740.30;109524;1254;67024;-64
2023/09/16 00:39:41;;;;;;;8.40;1.90;;;;;;;11.63;77.44;100740.10;109279;1254;72450;-64
2023/09/16 00:42:28;;;;;;;6.10;1.60;;;;;;;11.63;77.21;100741.34;109230;1254;57794;-64
2023/09/16 00:45:14;;;;;;;6.90;1.60;;;;;;;11.64;77.26;100745.32;109524;1254;60174;-66
2023/09/16 00:48:01;;;;;;;5.80;1.60;;;;;;;11.65;77.05;100743.64;109263;1254;72969;-64
2023/09/16 00:50:48;;;;;;;5.40;1.70;;;;;;;11.64;77.04;100743.38;109357;1256;68892;-66
2023/09/16 00:53:35;;;;;;;8.10;1.80;;;;;;;11.64;76.75;100737.53;109288;1256;73773;-65
2023/09/16 00:56:22;;;;;;;6.20;1.80;;;;;;;11.64;76.68;100738.58;108534;1254;1002423;-64
2023/09/16 00:59:09;;;;;;;7.80;1.60;;;;;;;11.63;76.44;100734.73;109311;1254;58848;-66
2023/09/16 01:01:56;;;;;;;6.50;1.80;;;;;;;11.66;76.50;100737.88;109409;1254;72088;-66
2023/09/16 01:04:43;;;;;;;5.80;1.80;;;;;;;11.70;76.33;100739.23;109547;1254;67828;-66
2023/09/16 01:07:31;;;;;;;6.20;1.90;;;;;;;11.72;76.27;100734.65;109361;1254;72527;-64
2023/09/16 01:10:22;;;;;;;5.80;1.60;;;;;;;11.75;75.99;100732.66;109311;1254;57616;-64
2023/09/16 01:13:09;;;;;;;6.70;2.30;;;;;;;11.74;76.01;100732.50;109308;1255;60173;-64
2023/09/16 01:16:07;;;;;;;6.30;1.80;;;;;;;11.73;76.14;100734.55;109276;1254;74131;-66
2023/09/16 01:19:07;;;;;;;5.40;1.50;;;;;;;11.70;76.19;100730.52;109328;1254;67810;-67
2023/09/16 01:21:55;;;;;;;6.10;1.50;;;;;;;11.67;76.22;100724.33;109355;1258;73816;-64
2023/09/16 01:24:41;;;;;;;7.10;1.90;;;;;;;11.65;76.45;100728.40;109262;1254;60603;-65
2023/09/16 01:27:28;;;;;;;6.10;1.90;;;;;;;11.62;76.66;100725.63;109273;1254;61425;-65
2023/09/16 01:30:14;;;;;;;6.90;1.70;;;;;;;11.58;76.80;100726.77;109359;1254;71522;-64
2023/09/16 01:33:33;;;;;;;6.40;1.90;;;;;;;11.53;76.99;100728.00;109506;1254;66583;-65
2023/09/16 01:36:29;;;;;;;6.80;1.70;;;;;;;11.43;77.28;100733.65;109336;1254;73686;-64
2023/09/16 01:39:16;;;;;;;7.10;2.00;;;;;;;11.35;77.75;100728.59;109205;1254;57571;-66
2023/09/16 01:42:03;;;;;;;6.40;1.70;;;;;;;11.24;78.27;100724.85;109474;1254;60082;-64
2023/09/16 01:44:53;;;;;;;7.10;1.80;;;;;;;11.13;78.75;100725.64;109256;1259;72804;-64
2023/09/16 01:47:39;;;;;;;6.90;1.80;;;;;;;11.02;79.41;100723.01;109394;1254;68686;-65
2023/09/16 01:50:26;;;;;;;6.40;1.80;;;;;;;10.87;79.91;100716.05;109268;1254;71164;-65
2023/09/16 01:53:12;;;;;;;6.90;2.10;;;;;;;10.79;80.58;100720.71;109250;1253;58145;-66
2023/09/16 01:56:03;;;;;;;5.40;1.60;;;;;;;10.65;80.91;100716.99;109483;1254;60153;-63
2023/09/16 01:58:49;;;;;;;7.00;2.00;;;;;;;10.60;81.96;100723.92;109279;1254;73950;-63
2023/09/16 02:01:36;;;;;;;6.90;2.00;;;;;;;10.52;82.46;100728.19;109316;1254;67640;-64
2023/09/16 02:04:23;;;;;;;7.40;2.10;;;;;;;10.42;82.75;100726.50;109499;1253;72470;-65
2023/09/16 02:07:11;;;;;;;6.80;1.70;;;;;;;10.34;83.21;100726.52;109456;1254;57433;-65
2023/09/16 02:09:59;;;;;;;6.80;1.90;;;;;;;10.24;83.96;100726.07;109307;1254;60192;-64
2023/09/16 02:12:45;;;;;;;6.20;2.00;;;;;;;10.15;83.94;100731.63;109131;1254;72201;-63
2023/09/16 02:15:34;;;;;;;6.60;1.80;;;;;;;10.05;84.52;100729.42;109322;1254;68858;-63
2023/09/16 02:18:20;;;;;;;7.20;1.90;;;;;;;9.96;84.80;100724.90;109238;1254;73200;-64
2023/09/16 02:21:07;;;;;;;7.40;2.00;;;;;;;9.86;85.26;100728.20;109373;1254;58167;-63
2023/09/16 02:23:54;;;;;;;6.40;1.90;;;;;;;9.79;85.86;100728.80;109388;1254;61039;-64
2023/09/16 02:26:40;;;;;;;7.80;1.80;;;;;;;9.74;85.98;100730.73;109325;1255;73008;-65
2023/09/16 02:29:29;;;;;;;6.90;2.20;;;;;;;9.69;86.53;100727.50;109521;1254;67912;-64
2023/09/16 02:32:15;;;;;;;6.90;2.10;;;;;;;9.64;86.96;100723.88;109223;1254;72600;-64
2023/09/16 02:35:03;;;;;;;6.70;2.10;;;;;;;9.59;87.61;100719.80;109246;1254;57628;-65
2023/09/16 02:37:49;;;;;;;8.00;2.10;;;;;;;9.52;87.33;100719.68;109268;1254;60149;-64
2023/09/16 02:40:42;;;;;;;7.80;2.10;;;;;;;9.47;87.79;100722.27;109492;1254;74068;-65
2023/09/16 02:43:29;;;;;;;9.90;2.20;;;;;;;9.43;88.12;100722.04;109347;1254;68627;-64
2023/09/16 02:46:15;;;;;;;6.30;2.30;;;;;;;9.41;87.81;100724.45;109271;1253;71226;-64
2023/09/16 02:49:03;;;;;;;7.90;2.10;;;;;;;9.41;88.26;100725.36;109403;1254;60614;-65
2023/09/16 02:51:49;;;;;;;8.60;2.80;;;;;;;9.42;88.56;100727.95;109271;1253;60097;-65
2023/09/16 02:54:36;;;;;;;7.00;3.00;;;;;;;9.45;88.46;100729.69;109466;1254;71680;-66
2023/09/16 02:57:22;;;;;;;8.90;3.30;;;;;;;9.51;88.55;100731.83;109352;1254;66296;-64
2023/09/16 03:00:09;;;;;;;8.00;2.70;;;;;;;9.58;88.90;100735.99;109487;1254;71298;-65
2023/09/16 03:02:56;;;;;;;7.70;2.90;;;;;;;9.65;88.45;100734.98;109270;1257;57254;-64
2023/09/16 03:05:46;;;;;;;8.40;3.30;;;;;;;9.70;88.25;100728.49;109411;1254;60376;-64
2023/09/16 03:08:33;;;;;;;7.90;3.00;;;;;;;9.74;88.27;100729.33;109256;1254;71887;-64
2023/09/16 03:11:19;;;;;;;7.30;2.70;;;;;;;9.78;87.94;100726.20;109201;1253;67682;-64
2023/09/16 03:14:06;;;;;;;7.20;2.30;;;;;;;9.80;87.83;100726.81;109216;1254;72379;-65
2023/09/16 03:16:53;;;;;;;8.10;2.60;;;;;;;9.83;87.47;100724.27;109346;1254;60592;-65
2023/09/16 03:19:40;;;;;;;7.20;2.50;;;;;;;9.88;87.35;100725.36;109309;1254;59719;-64
2023/09/16 03:22:26;;;;;;;5.70;1.90;;;;;;;9.93;86.92;100722.58;109294;1254;72797;-63
2023/09/16 03:25:14;;;;;;;7.30;2.10;;;;;;;9.97;87.17;100722.67;109389;1254;68641;-65
2023/09/16 03:28:01;;;;;;;6.70;2.10;;;;;;;10.02;86.91;100722.18;109316;1254;71439;-64
2023/09/16 03:30:47;;;;;;;8.30;2.10;;;;;;;10.08;86.75;100716.88;109458;1254;57347;-63
2023/09/16 03:33:36;;;;;;;8.20;2.00;;;;;;;10.12;86.75;100713.92;109303;1254;58912;-65
2023/09/16 03:36:23;;;;;;;6.10;2.10;;;;;;;10.12;86.21;100702.55;109241;1254;73067;-63
2023/09/16 03:39:09;;;;;;;7.20;2.00;;;;;;;10.18;85.96;100708.20;109520;1254;66534;-63
2023/09/16 03:41:56;;;;;;;7.10;1.80;;;;;;;10.17;86.03;100700.30;109274;1253;70406;-65
2023/09/16 03:44:42;;;;;;;6.00;1.90;;;;;;;10.17;86.12;100699.73;109410;1254;59391;-65
2023/09/16 03:47:29;;;;;;;7.60;1.90;;;;;;;10.19;85.85;100705.45;109413;1254;60026;-68
2023/09/16 03:50:16;;;;;;;6.80;2.20;;;;;;;10.21;85.76;100702.54;109450;1254;74201;-66
2023/09/16 03:53:03;;;;;;;6.30;2.20;;;;;;;10.23;85.70;100699.34;109437;1254;68383;-67
2023/09/16 03:55:57;;;;;;;6.10;1.90;;;;;;;10.29;85.36;100696.50;109383;1254;72499;-66
2023/09/16 03:58:43;;;;;;;5.80;1.70;;;;;;;10.34;85.52;100697.20;109477;1254;57779;-65
2023/09/16 04:01:30;;;;;;;7.30;2.00;;;;;;;10.38;85.09;100695.01;109511;1254;58272;-63
2023/09/16 04:04:16;;;;;;;6.80;1.90;;;;;;;10.40;84.87;100696.31;109354;1254;73803;-66
2023/09/16 04:07:03;;;;;;;7.10;2.10;;;;;;;10.37;85.03;100697.20;109485;1253;68927;-67
2023/09/16 04:09:49;;;;;;;7.00;1.80;;;;;;;10.33;84.73;100697.14;109438;1254;71284;-67
2023/09/16 04:12:37;;;;;;;7.40;2.40;;;;;;;10.27;84.83;100699.45;109181;1254;57340;-68
2023/09/16 04:15:23;;;;;;;6.70;2.00;;;;;;;10.22;84.71;100696.05;109426;1253;58838;-66
2023/09/16 04:18:10;;;;;;;8.70;2.00;;;;;;;10.18;85.03;100700.60;109544;1254;75197;-64
2023/09/16 04:20:56;;;;;;;6.20;2.10;;;;;;;10.14;85.26;100696.77;109365;1252;68721;-66
2023/09/16 04:23:43;;;;;;;6.50;2.20;;;;;;;10.11;85.56;100693.77;109369;1253;73670;-68
2023/09/16 04:26:29;;;;;;;7.40;1.80;;;;;;;10.09;85.80;100688.07;109340;1254;57347;-63
2023/09/16 04:29:16;;;;;;;7.30;2.20;;;;;;;10.07;86.06;100687.00;109281;1253;61457;-66
2023/09/16 04:32:05;;;;;;;8.20;2.50;;;;;;;10.06;86.39;100688.05;109396;1253;72887;-65
2023/09/16 04:34:57;;;;;;;6.50;2.10;;;;;;;10.08;86.18;100687.24;109166;1254;67992;-65
2023/09/16 04:37:44;;;;;;;7.30;2.50;;;;;;;10.09;86.49;100688.59;109019;1254;215584;-65
2023/09/16 04:40:30;;;;;;;9.40;2.40;;;;;;;10.10;86.45;100690.29;109216;1254;58231;-65
2023/09/16 04:43:18;;;;;;;7.10;2.00;;;;;;;10.10;86.41;100690.46;109335;1253;60322;-64
2023/09/16 04:46:04;;;;;;;6.70;2.40;;;;;;;10.09;86.43;100688.08;109537;1252;72898;-65
2023/09/16 04:49:03;;;;;;;6.70;2.30;;;;;;;10.06;86.70;100683.63;109502;1252;66518;-66
2023/09/16 04:51:51;;;;;;;7.70;2.50;;;;;;;10.03;87.06;100686.10;109347;1253;72699;-64
2023/09/16 04:54:41;;;;;;;6.80;2.30;;;;;;;9.99;87.31;100681.45;109455;1253;58105;-66
2023/09/16 04:57:27;;;;;;;7.00;2.50;;;;;;;9.95;86.98;100681.34;109382;1252;60179;-67
2023/09/16 05:00:20;;;;;;;8.70;3.30;;;;;;;9.92;87.20;100683.11;109399;1253;74005;-63
2023/09/16 05:03:07;;;;;;;8.30;2.80;;;;;;;9.89;87.73;100684.20;109394;1253;67949;-64
2023/09/16 05:05:54;;;;;;;9.20;3.10;;;;;;;9.89;87.72;100690.05;109348;1253;72711;-65
2023/09/16 05:08:44;;;;;;;8.70;3.40;;;;;;;9.90;88.06;100689.45;109292;1253;60642;-64
2023/09/16 05:11:31;;;;;;;8.20;3.00;;;;;;;9.92;88.15;100687.55;109434;1252;60138;-65
2023/09/16 05:14:20;;;;;;;10.50;3.30;;;;;;;9.95;88.16;100683.50;109385;1253;73890;-65
2023/09/16 05:17:07;;;;;;;9.50;3.10;;;;;;;10.01;88.49;100685.77;109532;1252;67581;-69
2023/09/16 05:19:54;;;;;;;8.10;2.90;;;;;;;10.07;88.37;100687.63;109320;1253;72612;-68
2023/09/16 05:22:40;;;;;;;11.90;3.70;;;;;;;10.12;88.00;100690.16;109303;1253;58689;-70
2023/09/16 05:25:27;;;;;;;9.00;2.80;;;;;;;10.17;88.09;100693.02;109436;1252;60396;-67
2023/09/16 05:28:13;;;;;;;9.00;3.10;;;;;;;10.23;87.95;100694.95;109337;1253;73140;-68
2023/09/16 05:31:00;;;;;;;8.70;2.70;;;;;;;10.29;88.11;100698.61;109376;1253;68835;-68
2023/09/16 05:33:50;;;;;;;7.70;2.80;;;;;;;10.37;87.89;100693.18;109320;1253;72546;-65
2023/09/16 05:36:36;;;;;;;7.00;2.60;;;;;;;10.44;87.85;100695.34;109159;1254;60421;-68
2023/09/16 05:39:26;;;;;;;7.20;2.20;;;;;;;10.49;87.88;100684.40;109351;1253;60058;-67
2023/09/16 05:42:13;;;;;;;6.80;2.20;;;;;;;10.63;87.48;100689.84;109314;1253;73800;-65
2023/09/16 05:45:00;;;;;;;7.40;2.20;;;;;;;10.75;87.11;100686.35;109420;1252;67743;-66
2023/09/16 05:47:48;;;;;;;8.10;2.10;;;;;;;10.96;86.21;100685.98;109074;1257;71550;-65
2023/09/16 05:50:35;;;;;;;6.50;2.10;;;;;;;11.14;85.54;100685.65;109049;1257;57418;-66
2023/09/16 05:53:22;;;;;;;7.20;2.20;;;;;;;11.30;84.84;100683.10;109060;1257;58927;-67
2023/09/16 05:56:09;;;;;;;9.30;2.40;;;;;;;11.46;84.40;100684.05;109099;1256;73426;-66
2023/09/16 05:59:00;;;;;;;9.00;2.20;;;;;;;11.62;84.08;100686.98;109022;1256;67895;-68
2023/09/16 06:01:47;;;;;;;7.10;2.20;;;;;;;11.78;83.56;100686.38;109027;1257;72600;-70
2023/09/16 06:04:34;;;;;;;8.00;2.50;;;;;;;11.95;82.39;100691.39;109031;1257;57677;-68
2023/09/16 06:07:24;;;;;;;7.20;2.50;;;;;;;12.13;81.31;100690.27;109054;1257;58847;-70
2023/09/16 06:10:12;;;;;;;6.70;2.00;;;;;;;12.30;80.10;100690.41;109111;1257;72913;-67
2023/09/16 06:12:58;;;;;;;7.70;2.10;;;;;;;12.47;79.68;100682.89;109033;1257;66422;-67
2023/09/16 06:15:45;;;;;;;7.80;2.00;;;;;;;12.64;78.97;100680.39;109065;1257;72638;-66
2023/09/16 06:18:31;;;;;;;6.30;2.00;;;;;;;12.83;78.24;100681.99;109245;1252;57864;-67
2023/09/16 06:21:18;;;;;;;6.90;2.10;;;;;;;13.04;77.58;100673.75;109373;1253;58859;-67
2023/09/16 06:24:09;;;;;;;9.90;2.00;;;;;;;13.38;76.55;100675.55;109380;1252;73809;-68
2023/09/16 06:26:57;;;;;;;8.40;2.10;;;;;;;14.19;73.94;100673.11;109112;1255;67792;-73
2023/09/16 06:29:44;;;;;;;6.50;1.90;;;;;;;15.92;70.21;100675.52;108985;1257;72681;-69
2023/09/16 06:32:31;;;;;;;9.20;2.10;;;;;;;18.03;64.34;100669.16;109002;1256;58016;-69
2023/09/16 06:35:18;;;;;;;6.10;1.80;;;;;;;20.07;58.23;100666.14;109158;1256;60381;-66
2023/09/16 06:38:05;;;;;;;6.60;2.10;;;;;;;21.80;52.12;100662.77;109184;1256;74128;-71
2023/09/16 06:40:51;;;;;;;6.60;2.10;;;;;;;23.33;46.20;100656.94;109197;1255;67799;-70
2023/09/16 06:43:38;;;;;;;6.70;2.00;;;;;;;24.58;42.65;100656.10;109180;1256;73257;-68
2023/09/16 06:46:24;;;;;;;6.10;1.70;;;;;;;25.65;40.39;100648.08;109107;1256;57452;-67
2023/09/16 06:49:12;;;;;;;7.00;1.90;;;;;;;26.54;37.67;100646.34;109132;1256;61177;-71
2023/09/16 06:51:58;;;;;;;6.80;1.90;;;;;;;27.34;35.38;100643.26;109151;1255;71621;-68
2023/09/16 06:54:45;;;;;;;8.20;2.00;;;;;;;28.27;33.98;100644.65;109147;1255;67729;-70
2023/09/16 06:57:32;;;;;;;7.00;2.00;;;;;;;28.91;32.35;100644.14;109228;1252;72705;-69
2023/09/16 07:00:36;;;;;;;6.80;1.60;;;;;;;29.71;30.82;100647.46;109457;1252;58452;-67
2023/09/16 07:03:23;;;;;;;7.40;1.70;;;;;;;30.08;29.43;100645.19;109480;1252;60258;-69
2023/09/16 07:06:09;;;;;;;5.60;1.70;;;;;;;30.43;28.89;100642.98;109492;1252;72909;-69
2023/09/16 07:08:56;;;;;;;8.00;1.80;;;;;;;30.81;28.22;100641.56;109359;1253;68750;-70
2023/09/16 07:11:42;;;;;;;8.00;1.70;;;;;;;31.08;27.51;100638.27;109322;1252;71256;-70
2023/09/16 07:14:29;;;;;;;7.70;1.70;;;;;;;31.32;27.18;100637.63;109401;1253;57349;-69
2023/09/16 07:17:15;;;;;;;8.70;1.80;;;;;;;31.51;26.61;100637.90;109454;1252;58768;-70
2023/09/16 07:20:02;;;;;;;7.80;1.80;;;;;;;31.78;26.75;100637.89;109284;1252;71950;-69
2023/09/16 07:22:51;;;;;;;6.90;1.70;;;;;;;32.03;26.12;100638.95;109479;1252;67440;-66
2023/09/16 07:25:37;;;;;;;6.80;1.80;;;;;;;32.24;25.44;100643.18;109406;1252;72409;-69
2023/09/16 07:28:28;;;;;;;8.90;2.10;;;;;;;32.29;25.34;100646.40;109369;1253;57836;-68
2023/09/16 07:31:14;;;;;;;7.30;1.70;;;;;;;32.17;24.95;100641.45;109419;1252;59988;-69
2023/09/16 07:34:03;;;;;;;8.20;1.80;;;;;;;32.00;25.51;100636.19;109589;1251;73216;-69
2023/09/16 07:36:49;;;;;;;9.00;2.00;;;;;;;31.98;25.43;100634.17;109522;1251;68757;-66
2023/09/16 07:39:35;;;;;;;8.00;1.80;;;;;;;31.97;25.00;100634.05;109587;1251;71627;-67
2023/09/16 07:42:22;;;;;;;7.30;1.70;;;;;;;31.96;24.83;100640.02;109377;1251;57711;-68
2023/09/16 07:45:09;;;;;;;9.10;1.60;;;;;;;32.07;24.94;100637.76;109529;1251;59351;-69
2023/09/16 07:47:55;;;;;;;7.00;1.80;;;;;;;32.01;24.83;100638.63;109590;1251;72122;-67
2023/09/16 07:50:41;;;;;;;8.30;1.80;;;;;;;32.14;24.45;100641.11;109583;1251;66546;-67
2023/09/16 07:53:28;;;;;;;7.10;1.70;;;;;;;32.10;24.40;100638.45;109512;1251;72716;-72
2023/09/16 07:56:18;;;;;;;8.30;1.70;;;;;;;32.28;24.57;100635.97;109429;1251;57327;-68
2023/09/16 07:59:04;;;;;;;7.00;1.80;;;;;;;32.73;24.39;100640.54;109550;1251;58795;-67
2023/09/16 08:01:50;;;;;;;6.70;1.80;;;;;;;33.05;23.72;100637.85;109634;1251;73789;-67
2023/09/16 08:04:37;;;;;;;7.30;1.60;;;;;;;33.01;23.45;100638.02;109489;1253;66455;-68
2023/09/16 08:07:23;;;;;;;8.30;1.50;;;;;;;32.98;23.31;100639.19;109512;1251;71769;-67
2023/09/16 08:10:10;;;;;;;5.80;1.70;;;;;;;33.22;23.64;100635.81;109527;1251;57241;-67
2023/09/16 08:12:56;;;;;;;7.10;1.60;;;;;;;33.52;22.82;100630.77;109494;1251;58935;-66
2023/09/16 08:15:43;;;;;;;7.00;1.60;;;;;;;33.67;22.59;100625.24;109407;1251;72955;-68
2023/09/16 08:18:29;;;;;;;8.10;1.90;;;;;;;34.10;22.49;100624.47;109582;1251;68943;-68
2023/09/16 08:21:15;;;;;;;7.80;1.70;;;;;;;33.96;21.78;100619.66;109580;1251;72638;-70
2023/09/16 08:24:01;;;;;;;7.50;1.60;;;;;;;34.07;22.05;100623.67;109617;1251;57930;-70
2023/09/16 08:26:48;;;;;;;6.40;1.60;;;;;;;34.47;21.99;100619.69;109577;1251;60194;-67
2023/09/16 08:29:34;;;;;;;5.80;1.50;;;;;;;34.98;21.60;100616.86;109428;1253;72690;-66
2023/09/16 08:32:23;;;;;;;7.30;1.80;;;;;;;35.15;20.83;100622.69;109763;1252;67873;-68
2023/09/16 08:35:10;;;;;;;6.60;1.70;;;;;;;34.86;20.55;100620.00;109591;1253;71229;-69
2023/09/16 08:38:00;;;;;;;7.00;1.70;;;;;;;34.40;20.76;100626.54;109610;1253;57423;-67
2023/09/16 08:40:54;;;;;;;9.50;1.70;;;;;;;34.04;21.28;100620.39;109587;1252;58980;-66
2023/09/16 08:43:41;;;;;;;6.00;1.60;;;;;;;33.92;21.35;100619.67;109360;1255;74062;-68
2023/09/16 08:46:30;;;;;;;8.00;1.60;;;;;;;34.02;21.30;100622.08;109549;1253;67592;-66
2023/09/16 08:49:19;;;;;;;6.40;1.40;;;;;;;33.64;21.48;100616.11;109246;1252;73514;-65
2023/09/16 08:52:09;;;;;;;6.10;1.80;;;;;;;33.42;21.66;100612.78;109396;1253;59054;-66
2023/09/16 08:54:56;;;;;;;8.90;1.60;;;;;;;33.41;21.87;100610.63;109355;1253;59953;-66
2023/09/16 08:58:08;;;;;;;6.60;1.80;;;;;;;33.19;22.03;100610.91;109440;1253;72789;-66
2023/09/16 09:00:54;;;;;;;6.40;1.70;;;;;;;33.26;22.54;100605.27;109284;1252;67722;-65
2023/09/16 09:03:41;;;;;;;8.30;1.90;;;;;;;33.14;22.18;100612.11;109456;1252;71261;-65
2023/09/16 09:06:28;;;;;;;6.80;1.90;;;;;;;32.56;23.09;100607.33;109500;1252;57800;-65
2023/09/16 09:09:27;;;;;;;8.70;1.90;;;;;;;32.59;23.44;100594.52;109612;1252;60804;-64
2023/09/16 09:12:13;;;;;;;6.50;1.60;;;;;;;32.48;23.32;100593.53;109542;1252;72926;-65
2023/09/16 09:15:04;;;;;;;6.90;1.80;;;;;;;32.10;23.81;100589.98;109528;1252;66343;-65
2023/09/16 09:17:56;;;;;;;7.40;2.00;;;;;;;32.13;23.92;100590.18;109360;1253;73512;-67
2023/09/16 09:20:42;;;;;;;7.10;1.90;;;;;;;31.99;23.80;100584.39;109340;1254;59168;-65
2023/09/16 09:23:30;;;;;;;7.40;2.00;;;;;;;31.69;24.06;100582.13;109454;1252;60333;-66
2023/09/16 09:26:16;;;;;;;8.00;2.00;;;;;;;31.48;24.43;100573.59;109513;1252;73369;-64
2023/09/16 09:29:09;;;;;;;6.60;2.00;;;;;;;31.33;24.85;100576.45;109493;1252;68868;-65
2023/09/16 09:31:55;;;;;;;6.20;1.90;;;;;;;31.05;25.32;100572.04;109476;1252;72827;-66
2023/09/16 09:34:42;;;;;;;6.20;1.70;;;;;;;31.02;25.22;100565.50;109351;1253;57925;-65
2023/09/16 09:37:29;;;;;;;7.60;2.00;;;;;;;31.09;25.35;100563.84;109494;1252;60142;-66
2023/09/16 09:40:16;;;;;;;5.90;1.90;;;;;;;31.50;25.22;100558.19;109263;1252;72941;-66
2023/09/16 09:43:03;;;;;;;7.20;1.90;;;;;;;31.91;24.90;100557.71;109518;1252;67708;-65
2023/09/16 09:45:49;;;;;;;7.20;1.80;;;;;;;32.43;24.61;100557.45;109354;1253;72379;-66
2023/09/16 09:48:36;;;;;;;6.70;1.90;;;;;;;32.76;23.98;100564.64;109338;1253;58133;-66
2023/09/16 09:51:26;;;;;;;7.70;1.80;;;;;;;32.96;23.95;100553.55;109563;1252;59014;-67
2023/09/16 09:54:12;;;;;;;8.90;2.10;;;;;;;33.08;23.72;100552.66;109227;1253;73201;-67
2023/09/16 09:57:04;;;;;;;8.90;2.10;;;;;;;32.43;24.02;100557.63;109379;1252;68612;-68
2023/09/16 09:59:50;;;;;;;7.40;2.20;;;;;;;32.15;24.43;100555.64;109243;1253;73474;-67
2023/09/16 10:02:39;;;;;;;7.80;2.80;;;;;;;32.09;24.86;100547.02;109472;1252;57508;-67
2023/09/16 10:05:26;;;;;;;9.80;2.30;;;;;;;31.69;25.30;100544.15;109337;1253;61203;-66
2023/09/16 10:08:13;;;;;;;6.80;2.10;;;;;;;31.74;25.30;100541.92;109487;1252;73047;-67
2023/09/16 10:11:00;;;;;;;7.30;2.10;;;;;;;31.75;25.35;100533.41;109534;1252;67871;-68
2023/09/16 10:13:49;;;;;;;6.80;2.00;;;;;;;32.25;24.98;100535.98;109334;1253;72478;-66
2023/09/16 10:16:37;;;;;;;7.70;2.60;;;;;;;31.87;25.31;100530.30;109227;1254;57748;-66
2023/09/16 10:19:26;;;;;;;8.10;2.50;;;;;;;32.16;25.13;100531.77;109510;1252;59073;-66
2023/09/16 10:22:14;;;;;;;7.20;2.30;;;;;;;32.38;25.00;100531.67;109329;1252;73100;-66
2023/09/16 10:25:00;;;;;;;8.40;2.20;;;;;;;32.07;25.20;100517.42;109384;1252;66615;-68
2023/09/16 10:28:03;;;;;;;7.20;2.20;;;;;;;32.16;25.14;100525.05;109349;1252;72520;-67
2023/09/16 10:30:50;;;;;;;8.10;2.30;;;;;;;32.09;25.51;100519.92;109497;1252;57428;-67
2023/09/16 10:33:41;;;;;;;8.00;2.20;;;;;;;32.23;25.40;100527.73;109357;1253;61050;-67
2023/09/16 10:36:28;;;;;;;7.50;2.50;;;;;;;31.87;25.44;100516.22;109336;1252;73691;-66
2023/09/16 10:39:15;;;;;;;6.70;2.30;;;;;;;32.27;25.35;100513.11;109494;1252;68366;-67
2023/09/16 10:42:04;;;;;;;7.20;2.30;;;;;;;32.14;25.16;100507.17;109387;1252;73504;-67
2023/09/16 10:44:51;;;;;;;7.80;2.20;;;;;;;31.96;25.56;100508.10;109378;1253;57965;-67
2023/09/16 10:47:38;;;;;;;6.90;2.40;;;;;;;31.47;25.70;100503.52;109417;1253;60376;-66
2023/09/16 10:50:29;;;;;;;8.90;2.10;;;;;;;30.98;26.44;100493.14;109316;1252;72771;-68
2023/09/16 10:53:21;;;;;;;7.80;2.20;;;;;;;30.90;26.72;100487.41;109394;1253;69412;-67
2023/09/16 10:56:36;;;;;;;7.20;2.20;;;;;;;30.92;26.80;100480.36;109338;1253;71455;-67
2023/09/16 10:59:25;;;;;;;9.30;2.10;;;;;;;31.27;26.63;100482.83;109337;1252;57327;-70
2023/09/16 11:02:59;;;;;;;8.80;2.10;;;;;;;31.20;26.52;100473.52;109531;1252;61304;-68
2023/09/16 11:05:46;;;;;;;8.20;2.00;;;;;;;31.40;26.07;100468.09;109502;1252;72858;-65
2023/09/16 11:08:33;;;;;;;8.70;2.10;;;;;;;31.26;26.39;100470.11;109284;1252;67797;-68
2023/09/16 11:11:21;;;;;;;6.90;1.80;;;;;;;31.31;26.35;100464.48;109553;1252;72607;-66
2023/09/16 11:14:09;;;;;;;7.20;1.90;;;;;;;31.17;26.42;100463.84;109364;1252;59241;-65
2023/09/16 11:16:55;;;;;;;8.00;2.20;;;;;;;31.01;26.52;100460.23;109345;1253;60177;-67
2023/09/16 11:19:42;;;;;;;10.90;1.80;;;;;;;30.91;26.60;100449.05;109555;1252;71734;-68
2023/09/16 11:22:28;;;;;;;11.10;2.00;;;;;;;30.55;26.79;100452.48;109449;1252;67834;-67
2023/09/16 11:25:17;;;;;;;11.60;2.10;;;;;;;30.42;27.05;100449.04;109517;1252;72529;-67
2023/09/16 11:28:10;;;;;;;6.30;1.90;;;;;;;30.29;27.17;100453.69;109364;1253;57491;-66
2023/09/16 11:31:01;;;;;;;6.30;2.00;;;;;;;30.00;27.70;100441.95;109238;1254;59069;-68
2023/09/16 11:33:47;;;;;;;7.90;2.40;;;;;;;29.95;28.14;100439.90;109242;1253;73381;-65
2023/09/16 11:36:35;;;;;;;5.90;2.00;;;;;;;29.67;28.42;100435.92;109326;1253;67413;-68
2023/09/16 11:39:36;;;;;;;7.90;2.10;;;;;;;29.52;28.58;100429.70;109536;1253;72602;-67
2023/09/16 11:42:24;;;;;;;9.60;2.20;;;;;;;29.16;28.73;100425.98;109469;1254;57342;-68
2023/09/16 11:45:10;;;;;;;7.70;1.80;;;;;;;28.74;29.12;100432.20;109541;1254;60173;-66
2023/09/16 11:48:00;;;;;;;9.40;2.00;;;;;;;28.28;29.77;100430.77;109387;1254;71553;-68
2023/09/16 11:50:48;;;;;;;7.80;2.10;;;;;;;28.11;30.42;100419.27;109336;1253;68265;-68
2023/09/16 11:53:34;;;;;;;7.30;2.10;;;;;;;27.74;30.75;100422.29;109350;1254;71565;-63
2023/09/16 11:56:31;;;;;;;7.50;2.10;;;;;;;27.07;31.74;100423.23;109316;1253;57521;-66
2023/09/16 11:59:18;;;;;;;6.80;2.10;;;;;;;26.90;32.48;100417.11;109339;1254;59280;-68
2023/09/16 12:02:05;;;;;;;7.40;1.90;;;;;;;27.00;32.63;100414.20;109284;1254;71774;-64
2023/09/16 12:04:52;;;;;;;9.20;2.40;;;;;;;27.01;32.30;100410.33;109330;1254;67079;-69
2023/09/16 12:07:38;;;;;;;6.50;1.80;;;;;;;26.49;32.96;100409.30;109409;1253;72603;-65
2023/09/16 12:10:25;;;;;;;8.70;2.40;;;;;;;26.52;33.27;100406.98;109453;1254;58846;-67
2023/09/16 12:13:11;;;;;;;11.00;2.10;;;;;;;26.20;33.69;100400.66;109430;1254;60105;-65
2023/09/16 12:15:58;;;;;;;7.40;1.90;;;;;;;25.68;34.58;100403.45;109464;1254;72872;-65
2023/09/16 12:18:45;;;;;;;8.10;2.20;;;;;;;25.18;35.15;100397.18;109359;1253;67833;-64
2023/09/16 12:21:33;;;;;;;9.10;2.30;;;;;;;24.75;36.44;100395.58;109281;1254;71288;-67
2023/09/16 12:24:23;;;;;;;8.50;2.30;;;;;;;24.15;36.02;100398.91;109285;1253;57967;-66
2023/09/16 12:27:11;;;;;;;6.60;2.10;;;;;;;23.58;36.68;100394.61;109309;1254;57902;-65
2023/09/16 12:30:02;;;;;;;7.60;2.10;;;;;;;23.25;37.58;100399.65;109508;1252;72907;-68
2023/09/16 12:32:51;;;;;;;8.50;2.40;;;;;;;22.95;38.09;100395.05;109296;1257;67198;-65
2023/09/16 12:35:39;;;;;;;8.60;2.20;;;;;;;22.73;38.49;100392.40;109344;1253;72578;-64
2023/09/16 12:38:25;;;;;;;9.70;2.10;;;;;;;22.52;39.01;100384.27;109299;1253;58016;-64
2023/09/16 12:41:15;;;;;;;7.80;2.00;;;;;;;22.31;39.73;100385.20;109287;1253;59063;-65
2023/09/16 12:44:02;;;;;;;7.70;2.60;;;;;;;22.15;40.73;100374.89;109489;1253;73885;-67
2023/09/16 12:46:49;;;;;;;8.40;2.50;;;;;;;22.13;41.28;100376.15;109527;1252;69372;-65
2023/09/16 12:49:37;;;;;;;6.90;2.50;;;;;;;22.00;41.16;100376.39;109489;1252;72725;-65
2023/09/16 12:52:23;;;;;;;8.20;2.30;;;;;;;21.93;41.54;100369.28;109371;1253;59066;-65